KBYS

Bicycle Lake AAF Airport

Fort Irwin/Barstow, California, USA
METAR KBYS 231055Z AUTO 23006KT 10SM FEW210 19/07 A2985 RMK AO2 SLP077 WND DATA ESTMD T01910065
Observed Flight Rules
May-23 @ 10:55 UTC (19 minutes ago) Visual Flight Rules
Wind Visibility Clouds
230° at 6 knots 10 miles
  • Few at 21,000' AGL
Temperatures Readings
Current 19°C / 66°F
Dewpoint 7°C / 45°F
Humidity 46%
Altimeter 29.85" Hg
Pressure 1007.7 hPa
Elevation 716
METAR KBYS 231055Z AUTO 23006KT 10SM FEW210 19/07 A2985 RMK AO2 SLP077 WND DATA ESTMD T01910065
Observed Flight Rules
May-23 @ 10:55 UTC
(19 minutes ago)
VFR
Wind Visibility
230° at 6 knots 10 miles
Clouds
  • Few at 21,000' AGL
Temperature Dewpoint
19°C / 66°F 7°C / 45°F
Humidity Altimeter Pressure
46% 29.85" Hg 1007.7 hPa